Time;durP1;ratioP1;P1;durP2;ratioP2;P2;SDS_P1;SDS_P2;PMS_P1;PMS_P2;Temp;Humidity;BMP_temperature;BMP_pressure;BME280_temperature;BME280_humidity;BME280_pressure;Samples;Min_cycle;Max_cycle;Signal;HPM_P1;HPM_P2
2023/10/01 00:00:36;;;;;;;30.60;18.73;;;20.60;91.90;;;;;;5054202;28;20044;-64
2023/10/01 00:03:40;;;;;;;31.73;18.90;;;20.50;92.00;;;;;;5053830;28;20051;-64
2023/10/01 00:06:44;;;;;;;34.05;19.23;;;20.50;92.10;;;;;;5054041;28;20048;-64
2023/10/01 00:09:48;;;;;;;33.95;20.10;;;20.30;92.20;;;;;;5054009;28;20047;-64
2023/10/01 00:12:54;;;;;;;36.42;21.05;;;20.50;92.20;;;;;;5053757;28;20048;-64
2023/10/01 00:15:59;;;;;;;39.33;21.60;;;20.30;92.40;;;;;;5052243;28;20397;-65
2023/10/01 00:19:07;;;;;;;42.50;21.13;;;20.20;92.50;;;;;;5053703;28;20048;-64
2023/10/01 00:22:11;;;;;;;33.55;17.05;;;19.90;92.40;;;;;;5053459;28;20124;-64
2023/10/01 00:25:17;;;;;;;35.63;19.98;;;20.20;92.20;;;;;;5053392;28;20108;-64
2023/10/01 00:28:21;;;;;;;41.90;20.38;;;20.20;92.60;;;;;;5053598;28;20039;-64
2023/10/01 00:31:25;;;;;;;30.65;20.92;;;20.20;92.50;;;;;;5053666;28;20048;-64
2023/10/01 00:34:29;;;;;;;35.15;21.63;;;20.20;92.50;;;;;;5053178;28;20056;-64
2023/10/01 00:37:34;;;;;;;34.80;21.83;;;20.20;92.50;;;;;;5053325;28;20044;-64
2023/10/01 00:40:42;;;;;;;38.72;20.30;;;20.10;92.60;;;;;;5053264;28;20040;-64
2023/10/01 00:43:46;;;;;;;38.60;20.08;;;20.10;92.60;;;;;;5052248;28;20059;-64
2023/10/01 00:46:50;;;;;;;37.45;19.33;;;20.30;92.70;;;;;;5053333;28;20044;-64
2023/10/01 00:49:57;;;;;;;30.88;18.92;;;19.90;92.70;;;;;;5053327;28;20048;-64
2023/10/01 00:53:01;;;;;;;31.63;18.52;;;19.90;92.90;;;;;;5052539;28;20039;-64
2023/10/01 00:56:05;;;;;;;31.52;19.00;;;19.80;92.80;;;;;;5053008;28;20047;-64
2023/10/01 00:59:10;;;;;;;33.65;18.00;;;19.80;93.10;;;;;;5052866;28;20389;-64
2023/10/01 01:02:18;;;;;;;32.30;18.38;;;19.70;93.00;;;;;;5053141;28;20052;-64
2023/10/01 01:05:34;;;;;;;27.27;17.80;;;19.60;93.10;;;;;;5052060;28;20052;-64
2023/10/01 01:08:47;;;;;;;28.65;17.90;;;19.50;93.30;;;;;;5052933;28;20056;-64
2023/10/01 01:11:52;;;;;;;31.35;17.75;;;18.50;93.20;;;;;;5052674;28;20040;-64
2023/10/01 01:14:58;;;;;;;36.92;18.70;;;18.20;93.30;;;;;;5051881;28;20052;-64
2023/10/01 01:18:07;;;;;;;29.42;18.38;;;20.20;93.80;;;;;;5052789;28;20040;-64
2023/10/01 01:21:13;;;;;;;27.13;16.67;;;19.40;93.70;;;;;;5051883;28;20040;-64
2023/10/01 01:24:17;;;;;;;31.00;18.75;;;17.50;93.30;;;;;;5051567;28;20609;-64
2023/10/01 01:27:23;;;;;;;30.58;16.88;;;19.40;93.70;;;;;;5051339;28;20511;-64
2023/10/01 01:30:29;;;;;;;27.75;17.42;;;19.40;93.80;;;;;;5051711;28;20384;-64
2023/10/01 01:33:40;;;;;;;26.88;16.42;;;19.90;94.00;;;;;;5052071;28;20040;-64
2023/10/01 01:36:43;;;;;;;25.23;15.63;;;18.70;93.50;;;;;;5051731;28;20055;-64
2023/10/01 01:39:50;;;;;;;26.02;16.45;;;16.60;93.00;;;;;;5052492;28;20236;-64
2023/10/01 01:42:56;;;;;;;27.52;16.55;;;19.40;93.90;;;;;;5052223;28;20077;-64
2023/10/01 01:46:08;;;;;;;28.33;17.25;;;18.90;93.60;;;;;;5039960;28;20044;-64
2023/10/01 01:49:14;;;;;;;26.90;15.93;;;20.60;93.90;;;;;;5052104;28;20519;-64
2023/10/01 01:52:18;;;;;;;30.48;16.42;;;21.50;94.20;;;;;;5051097;28;20036;-64
2023/10/01 01:55:23;;;;;;;25.30;16.92;;;19.50;93.80;;;;;;5052138;28;20380;-64
2023/10/01 01:58:29;;;;;;;30.90;16.30;;;20.60;94.10;;;;;;5051834;28;20040;-64
2023/10/01 02:01:35;;;;;;;28.15;16.70;;;19.40;93.70;;;;;;5050949;28;20069;-64
2023/10/01 02:04:58;;;;;;;24.48;16.25;;;17.10;93.30;;;;;;5050872;28;20503;-64
2023/10/01 02:08:09;;;;;;;26.52;15.55;;;19.30;93.60;;;;;;5050886;28;20048;-64
2023/10/01 02:11:13;;;;;;;26.20;15.55;;;19.20;93.30;;;;;;5051730;28;20053;-64
2023/10/01 02:14:34;;;;;;;20.10;15.30;;;;;;;;;;5050535;28;20040;-64
2023/10/01 02:17:40;;;;;;;27.83;15.02;;;;;;;;;;5051442;28;20048;-64
2023/10/01 02:20:44;;;;;;;30.75;16.10;;;19.50;93.90;;;;;;5051690;28;20048;-64
2023/10/01 02:23:52;;;;;;;28.80;16.30;;;19.00;93.90;;;;;;5051145;28;20120;-64
2023/10/01 02:27:03;;;;;;;27.75;16.15;;;;;;;;;;5051523;28;20044;-64
2023/10/01 02:30:13;;;;;;;29.38;14.98;;;;;;;;;;5050647;28;20063;-64
2023/10/01 02:33:18;;;;;;;24.38;14.38;;;;;;;;;;5051336;28;20044;-64
2023/10/01 02:36:23;;;;;;;28.25;15.82;;;;;;;;;;5051093;28;20056;-64
2023/10/01 02:39:27;;;;;;;24.25;14.73;;;;;;;;;;5049602;28;20044;-64
2023/10/01 02:42:32;;;;;;;19.10;14.07;;;;;;;;;;5051163;28;20044;-64
2023/10/01 02:45:41;;;;;;;24.20;14.35;;;;;;;;;;5051516;28;20047;-64
2023/10/01 02:48:47;;;;;;;24.75;13.73;;;;;;;;;;5050988;28;20503;-64
2023/10/01 02:51:51;;;;;;;23.23;14.82;;;18.60;94.00;;;;;;5051096;28;20527;-64
2023/10/01 02:54:57;;;;;;;22.08;14.63;;;;;;;;;;5051088;28;20048;-64
2023/10/01 02:58:17;;;;;;;23.85;15.20;;;;;;;;;;5050938;28;20044;-64
2023/10/01 03:01:22;;;;;;;24.70;14.05;;;;;;;;;;5050258;28;20047;-64
2023/10/01 03:04:27;;;;;;;23.30;14.38;;;;;;;;;;5049932;28;20069;-64
2023/10/01 03:07:37;;;;;;;25.38;14.15;;;18.70;94.00;;;;;;5050032;28;20036;-64
2023/10/01 03:10:46;;;;;;;23.40;14.63;;;16.10;93.30;;;;;;5051066;28;20048;-64
2023/10/01 03:14:03;;;;;;;19.85;13.68;;;19.30;94.20;;;;;;5050710;28;20040;-64
2023/10/01 03:17:08;;;;;;;24.27;13.75;;;17.00;93.60;;;;;;5050712;28;20408;-64
2023/10/01 03:21:06;;;;;;;25.10;14.40;;;;;;;;;;5050816;28;20048;-64
2023/10/01 03:23:37;;;;;;;25.38;14.82;;;;;;;;;;5050746;28;20056;-64
2023/10/01 03:26:44;;;;;;;25.42;14.60;;;;;;;;;;5050629;28;20036;-64
2023/10/01 03:29:53;;;;;;;20.83;13.68;;;;;;;;;;5050715;28;20048;-64
2023/10/01 03:33:08;;;;;;;21.70;13.98;;;17.30;93.70;;;;;;5050857;28;20044;-64
2023/10/01 03:36:16;;;;;;;19.52;14.48;;;18.60;94.00;;;;;;5050881;28;20044;-64
2023/10/01 03:39:25;;;;;;;22.08;13.73;;;;;;;;;;5050530;28;20052;-64
2023/10/01 03:42:33;;;;;;;24.20;14.27;;;;;;;;;;5050303;28;20060;-64
2023/10/01 03:45:39;;;;;;;19.02;13.27;;;;;;;;;;5050406;28;20440;-64
2023/10/01 03:52:09;;;;;;;24.75;14.55;;;;;;;;;;5048948;28;20051;-64
2023/10/01 03:55:26;;;;;;;21.00;14.00;;;;;;;;;;5054272;28;20047;-64
2023/10/01 03:58:36;;;;;;;25.85;17.95;;;;;;;;;;5053962;28;20056;-64
2023/10/01 04:01:58;;;;;;;23.90;15.27;;;;;;;;;;5054061;28;20040;-64
2023/10/01 04:05:06;;;;;;;29.50;14.40;;;;;;;;;;5054065;28;20059;-64
2023/10/01 04:08:14;;;;;;;23.00;13.77;;;18.00;94.50;;;;;;5054558;28;20060;-64
2023/10/01 04:11:18;;;;;;;17.98;13.85;;;;;;;;;;5053943;28;20044;-64
2023/10/01 04:14:23;;;;;;;18.90;13.18;;;;;;;;;;5053810;28;20044;-64
2023/10/01 04:17:36;;;;;;;16.48;12.77;;;;;;;;;;5054160;28;20048;-64
2023/10/01 04:20:48;;;;;;;20.45;14.30;;;18.10;94.20;;;;;;5053928;28;20592;-64
2023/10/01 04:23:54;;;;;;;18.90;14.60;;;;;;;;;;5053512;28;20425;-64
2023/10/01 04:27:21;;;;;;;22.50;14.82;;;;;;;;;;5053463;28;20044;-64
2023/10/01 04:30:22;;;;;;;30.23;17.75;;;;;;;;;;5053755;28;20059;-64
2023/10/01 04:33:26;;;;;;;32.90;19.67;;;;;;;;;;5053155;28;20515;-64
2023/10/01 04:36:32;;;;;;;36.22;22.10;;;;;;;;;;5053360;28;20060;-64
2023/10/01 04:39:37;;;;;;;40.40;24.48;;;;;;;;;;5053273;28;20052;-64
2023/10/01 04:42:43;;;;;;;48.17;30.20;;;;;;;;;;5052989;28;20052;-64
2023/10/01 04:45:52;;;;;;;47.45;29.17;;;17.70;94.00;;;;;;5053323;28;20052;-64
2023/10/01 04:48:56;;;;;;;42.17;27.50;;;;;;;;;;5053389;28;20040;-64
2023/10/01 04:52:10;;;;;;;45.22;27.88;;;;;;;;;;5053003;28;20400;-64
2023/10/01 04:55:14;;;;;;;41.40;27.85;;;;;;;;;;5052857;28;20036;-64
2023/10/01 04:58:21;;;;;;;46.63;26.30;;;;;;;;;;5052903;28;20032;-64
2023/10/01 05:01:27;;;;;;;39.33;23.40;;;;;;;;;;5052497;28;20048;-64
2023/10/01 05:04:32;;;;;;;37.47;22.38;;;;;;;;;;5052562;28;20052;-64
2023/10/01 05:07:36;;;;;;;36.80;22.92;;;;;;;;;;5052930;28;20048;-64
2023/10/01 05:10:53;;;;;;;32.22;20.30;;;;;;;;;;5052729;28;20047;-64
2023/10/01 05:13:58;;;;;;;32.28;18.65;;;;;;;;;;5052774;28;20064;-66
2023/10/01 05:17:07;;;;;;;23.35;16.27;;;;;;;;;;5051853;28;20044;-64
2023/10/01 05:20:11;;;;;;;28.65;16.13;;;;;;;;;;5052834;28;20047;-64
2023/10/01 05:23:20;;;;;;;25.55;16.25;;;18.20;93.90;;;;;;5052264;28;20048;-64
2023/10/01 05:26:35;;;;;;;20.77;15.75;;;;;;;;;;5052482;28;20051;-64
2023/10/01 05:29:39;;;;;;;26.45;15.02;;;;;;;;;;5052444;28;20048;-64
2023/10/01 05:32:51;;;;;;;27.42;15.50;;;;;;;;;;5051833;28;20044;-64
2023/10/01 05:35:57;;;;;;;;;;;19.90;91.90;;;;;;5052827;28;20048;-64
2023/10/01 05:39:01;;;;;;;20.95;13.98;;;;;;;;;;5052266;28;19916;-65
2023/10/01 05:42:08;;;;;;;21.80;13.75;;;22.30;85.90;;;;;;5052501;28;20058;-65
2023/10/01 05:45:18;;;;;;;26.25;14.15;;;;;;;;;;5051946;28;20059;-65
2023/10/01 05:48:23;;;;;;;20.10;13.15;;;22.40;84.60;;;;;;5052284;28;20052;-65
2023/10/01 05:51:30;;;;;;;21.95;13.77;;;22.90;84.00;;;;;;5052223;28;20055;-65
2023/10/01 05:54:34;;;;;;;18.35;13.10;;;23.70;82.40;;;;;;5051778;28;20060;-65
2023/10/01 05:57:39;;;;;;;17.60;11.85;;;24.40;80.70;;;;;;5052135;28;20044;-65
2023/10/01 06:00:56;;;;;;;18.20;11.68;;;24.90;79.60;;;;;;5052065;28;20044;-65
2023/10/01 06:04:00;;;;;;;19.23;11.82;;;25.40;77.40;;;;;;5051680;28;20056;-65
2023/10/01 06:07:04;;;;;;;19.63;12.10;;;26.10;76.10;;;;;;5051836;28;20036;-65
2023/10/01 06:10:10;;;;;;;20.15;11.52;;;26.40;74.90;;;;;;5050388;28;20048;-65
2023/10/01 06:13:17;;;;;;;20.25;11.05;;;26.50;75.20;;;;;;5050246;28;20048;-65
2023/10/01 06:16:23;;;;;;;25.75;12.43;;;26.60;75.00;;;;;;5050339;28;20040;-65
2023/10/01 06:19:28;;;;;;;19.45;10.43;;;26.90;74.20;;;;;;5050176;28;20448;-65
2023/10/01 06:22:32;;;;;;;17.10;10.40;;;26.90;74.00;;;;;;5051431;28;20048;-65
2023/10/01 06:25:40;;;;;;;17.25;10.27;;;26.80;73.40;;;;;;5051263;28;20060;-65
2023/10/01 06:28:45;;;;;;;16.80;9.68;;;26.90;72.20;;;;;;5051228;28;20052;-65
2023/10/01 06:31:50;;;;;;;17.20;9.77;;;26.80;72.90;;;;;;5051502;28;20052;-65
2023/10/01 06:34:57;;;;;;;25.88;10.57;;;26.80;74.90;;;;;;5050909;28;20434;-65
2023/10/01 06:38:01;;;;;;;22.02;9.95;;;26.30;75.20;;;;;;5051234;28;20048;-65
2023/10/01 06:41:06;;;;;;;26.95;10.88;;;26.10;74.50;;;;;;5051179;28;20387;-65
2023/10/01 06:44:13;;;;;;;17.65;9.93;;;25.90;78.20;;;;;;5050771;28;20408;-64
2023/10/01 06:47:17;;;;;;;17.73;8.80;;;25.80;76.40;;;;;;5051112;28;20040;-65
2023/10/01 06:50:24;;;;;;;15.70;8.30;;;25.60;75.60;;;;;;5051316;28;20064;-65
2023/10/01 06:53:43;;;;;;;16.38;8.00;;;25.70;74.20;;;;;;5050946;28;20036;-65
2023/10/01 06:56:47;;;;;;;16.42;6.82;;;25.80;72.50;;;;;;5051249;28;20052;-65
2023/10/01 06:59:52;;;;;;;13.32;7.30;;;25.60;72.60;;;;;;5051157;28;20040;-64
2023/10/01 07:03:13;;;;;;;12.15;6.72;;;25.80;71.60;;;;;;5050830;28;20044;-65
2023/10/01 07:06:17;;;;;;;17.95;6.90;;;25.80;70.00;;;;;;5050191;28;20388;-65
2023/10/01 07:09:27;;;;;;;19.77;7.05;;;25.70;71.10;;;;;;5050905;28;20052;-65
2023/10/01 07:12:31;;;;;;;12.10;5.80;;;25.90;69.20;;;;;;5051233;28;20388;-64
2023/10/01 07:15:39;;;;;;;12.20;6.57;;;25.90;69.70;;;;;;5051155;28;20056;-65
2023/10/01 07:18:44;;;;;;;13.43;6.18;;;26.20;70.20;;;;;;5050957;28;20044;-65
2023/10/01 07:21:56;;;;;;;20.10;6.80;;;26.30;68.50;;;;;;5050890;28;20404;-64
2023/10/01 07:25:03;;;;;;;12.43;5.85;;;26.20;69.00;;;;;;5052879;28;20055;-64
2023/10/01 07:28:12;;;;;;;13.50;7.38;;;26.10;69.00;;;;;;5054732;28;20036;-65
2023/10/01 07:31:18;;;;;;;18.52;6.90;;;26.30;69.30;;;;;;5054718;28;20056;-65
2023/10/01 07:34:26;;;;;;;11.52;7.03;;;26.50;69.40;;;;;;5054470;28;20052;-64
2023/10/01 07:37:31;;;;;;;15.05;8.07;;;26.70;68.30;;;;;;5053861;28;20040;-65
2023/10/01 07:40:52;;;;;;;20.55;9.50;;;27.00;69.00;;;;;;5053531;28;20055;-65
2023/10/01 07:43:56;;;;;;;;;;;27.20;68.40;;;;;;5054792;28;20048;-65
2023/10/01 07:47:02;;;;;;;15.60;7.30;;;27.00;68.10;;;;;;5054607;28;19919;-65
2023/10/01 07:50:12;;;;;;;11.25;7.00;;;26.70;67.90;;;;;;5054207;28;20056;-65
2023/10/01 07:53:16;;;;;;;14.38;7.35;;;27.10;68.90;;;;;;5054089;28;20060;-65
2023/10/01 07:56:23;;;;;;;14.02;7.25;;;27.40;69.10;;;;;;5054284;28;20048;-64
2023/10/01 07:59:33;;;;;;;10.68;6.97;;;27.80;68.50;;;;;;5053973;28;20404;-65
2023/10/01 08:03:28;;;;;;;12.15;7.00;;;28.10;68.00;;;;;;5054340;28;20511;-65
2023/10/01 08:06:12;;;;;;;11.13;6.68;;;28.20;68.40;;;;;;5053887;28;20064;-65
2023/10/01 08:09:17;;;;;;;12.68;6.55;;;27.70;67.10;;;;;;5053726;28;20036;-65
2023/10/01 08:13:06;;;;;;;15.77;7.57;;;28.50;66.90;;;;;;5053921;28;20388;-65
2023/10/01 08:15:58;;;;;;;15.93;8.07;;;28.50;67.20;;;;;;5056277;28;20044;-65
2023/10/01 08:19:05;;;;;;;17.55;7.85;;;28.30;67.10;;;;;;5054068;28;20048;-65
2023/10/01 08:22:22;;;;;;;15.20;6.70;;;28.30;68.00;;;;;;5053667;28;20048;-65
2023/10/01 08:25:27;;;;;;;13.88;6.45;;;28.40;65.60;;;;;;5053477;28;20060;-65
2023/10/01 08:28:43;;;;;;;12.65;7.13;;;28.30;66.20;;;;;;5053749;28;20048;-65
2023/10/01 08:35:05;;;;;;;12.30;6.97;;;28.60;66.20;;;;;;5053129;28;20067;-65
2023/10/01 08:38:15;;;;;;;11.43;5.75;;;28.70;65.40;;;;;;5053454;28;20071;-65
2023/10/01 08:41:35;;;;;;;8.93;5.25;;;28.80;64.40;;;;;;5053547;28;20059;-65
2023/10/01 08:44:51;;;;;;;11.02;5.72;;;28.70;64.10;;;;;;5053182;28;20111;-65
2023/10/01 08:47:59;;;;;;;9.27;6.35;;;28.80;64.20;;;;;;5053460;28;20032;-65
2023/10/01 08:51:11;;;;;;;12.60;6.47;;;28.80;64.40;;;;;;5053372;28;20052;-64
2023/10/01 08:54:15;;;;;;;13.85;6.70;;;28.50;64.30;;;;;;5053018;28;20036;-65
2023/10/01 08:57:36;;;;;;;9.00;4.50;;;28.20;61.60;;;;;;5053010;28;20063;-64
2023/10/01 09:00:52;;;;;;;6.45;4.25;;;28.10;62.40;;;;;;5052952;28;20416;-65
2023/10/01 09:03:57;;;;;;;11.13;4.63;;;27.80;62.60;;;;;;5052958;28;20051;-65
2023/10/01 09:07:04;;;;;;;12.43;4.80;;;27.70;63.30;;;;;;5053068;28;20068;-64
2023/10/01 09:10:09;;;;;;;10.43;4.55;;;27.90;63.70;;;;;;5052711;28;20115;-65
2023/10/01 09:13:20;;;;;;;12.23;4.80;;;28.20;63.40;;;;;;5052834;28;20051;-65
2023/10/01 09:16:32;;;;;;;7.78;4.57;;;28.20;63.80;;;;;;5052928;28;20047;-65
2023/10/01 09:19:50;;;;;;;11.13;4.30;;;29.10;64.40;;;;;;5052709;28;20052;-65
2023/10/01 09:23:01;;;;;;;7.95;4.45;;;28.50;64.20;;;;;;5052494;28;20044;-65
2023/10/01 09:26:05;;;;;;;;;;;28.60;64.70;;;;;;5052801;28;20048;-65
2023/10/01 09:29:27;;;;;;;11.43;3.80;;;28.70;63.00;;;;;;5052456;28;19916;-65
2023/10/01 09:32:56;;;;;;;6.60;3.75;;;28.60;61.00;;;;;;5052533;28;20040;-64
2023/10/01 09:36:00;;;;;;;10.48;4.03;;;28.60;61.70;;;;;;5052402;28;20056;-65
2023/10/01 09:39:06;;;;;;;12.55;3.83;;;28.60;62.40;;;;;;5052253;28;20488;-65
2023/10/01 09:42:28;;;;;;;7.20;3.80;;;28.60;61.90;;;;;;5052118;28;20035;-64
2023/10/01 09:45:39;;;;;;;11.95;4.00;;;28.50;62.20;;;;;;5052214;28;20051;-65
2023/10/01 09:48:48;;;;;;;8.95;3.72;;;28.40;62.30;;;;;;5052033;28;20039;-65
2023/10/01 09:51:54;;;;;;;14.68;4.30;;;28.40;63.10;;;;;;5052257;28;20108;-65
2023/10/01 09:55:03;;;;;;;13.13;4.28;;;28.40;63.00;;;;;;5051959;28;20044;-65
2023/10/01 09:58:10;;;;;;;9.35;4.40;;;28.10;62.20;;;;;;5052063;28;20044;-64
2023/10/01 10:01:17;;;;;;;12.65;4.20;;;;;;;;;;5052170;28;20044;-64
2023/10/01 10:04:24;;;;;;;13.48;5.18;;;27.90;62.10;;;;;;5051070;28;20040;-64
2023/10/01 10:07:28;;;;;;;9.43;4.35;;;28.30;63.00;;;;;;5051998;28;20040;-64
2023/10/01 10:10:33;;;;;;;10.73;4.38;;;27.90;62.10;;;;;;5051713;28;20392;-64
2023/10/01 10:13:48;;;;;;;14.63;4.40;;;28.30;62.90;;;;;;5051738;28;20372;-64
2023/10/01 10:17:18;;;;;;;15.00;4.43;;;28.30;63.70;;;;;;5051556;28;20499;-64
2023/10/01 10:20:25;;;;;;;7.03;4.25;;;28.30;63.30;;;;;;5051374;28;20100;-64
2023/10/01 10:23:29;;;;;;;9.13;4.63;;;29.30;62.80;;;;;;5051354;28;20043;-64
2023/10/01 10:26:56;;;;;;;13.15;4.22;;;28.30;62.80;;;;;;5051598;28;20048;-65
2023/10/01 10:30:05;;;;;;;7.63;4.57;;;28.60;63.70;;;;;;5051355;28;20533;-65
2023/10/01 10:33:15;;;;;;;11.20;4.25;;;28.70;61.90;;;;;;5051338;28;20052;-64
2023/10/01 10:36:50;;;;;;;8.98;4.15;;;28.70;62.10;;;;;;5051400;28;20056;-65
2023/10/01 10:40:02;;;;;;;12.50;4.47;;;28.70;62.00;;;;;;5051459;28;20047;-65
2023/10/01 10:43:06;;;;;;;9.75;3.92;;;28.60;62.30;;;;;;5050824;28;20059;-64
2023/10/01 10:46:10;;;;;;;6.03;4.07;;;28.50;62.70;;;;;;5050852;28;20051;-65
2023/10/01 10:49:15;;;;;;;10.70;4.80;;;28.60;62.30;;;;;;5050908;28;20067;-64
2023/10/01 10:52:32;;;;;;;6.85;4.38;;;28.30;62.50;;;;;;5051178;28;20063;-64
2023/10/01 10:55:36;;;;;;;9.02;4.53;;;28.40;63.50;;;;;;5050860;28;20511;-64
2023/10/01 10:58:43;;;;;;;12.35;4.28;;;28.30;62.20;;;;;;5050323;28;20048;-64
2023/10/01 11:01:47;;;;;;;6.88;4.00;;;28.40;63.20;;;;;;5050972;28;20048;-64
2023/10/01 11:04:51;;;;;;;6.85;4.63;;;28.50;62.90;;;;;;5049923;28;20055;-65
2023/10/01 11:07:59;;;;;;;8.88;4.75;;;28.40;62.80;;;;;;5050870;28;20046;-65
2023/10/01 11:11:10;;;;;;;8.07;4.20;;;28.40;63.70;;;;;;5051062;28;20044;-65
2023/10/01 11:14:17;;;;;;;24.55;5.55;;;28.60;64.30;;;;;;5050765;28;20044;-65
2023/10/01 11:17:22;;;;;;;11.73;4.30;;;28.30;63.00;;;;;;5050980;28;20040;-65
2023/10/01 11:20:32;;;;;;;11.38;4.30;;;28.30;62.90;;;;;;5050678;28;20048;-65
2023/10/01 11:23:39;;;;;;;10.80;5.03;;;28.30;63.00;;;;;;5050675;28;20508;-65
2023/10/01 11:27:25;;;;;;;12.48;4.85;;;28.40;63.00;;;;;;5050796;28;20055;-65
2023/10/01 11:30:34;;;;;;;14.27;4.55;;;28.50;62.20;;;;;;5050850;28;20048;-65
2023/10/01 11:33:38;;;;;;;8.75;4.82;;;28.50;62.90;;;;;;5050309;28;20048;-65
2023/10/01 11:36:42;;;;;;;9.98;4.30;;;28.30;61.70;;;;;;5050702;28;20060;-64
2023/10/01 11:39:49;;;;;;;8.77;4.53;;;28.20;62.30;;;;;;5050623;28;20056;-64
2023/10/01 11:43:05;;;;;;;8.73;4.65;;;28.30;61.40;;;;;;5050561;28;20044;-64
2023/10/01 11:46:23;;;;;;;12.15;5.43;;;28.30;62.00;;;;;;5050538;28;20067;-65
2023/10/01 11:49:45;;;;;;;15.05;4.80;;;29.40;62.40;;;;;;5050508;28;20044;-65
2023/10/01 11:53:05;;;;;;;11.82;4.53;;;28.40;62.80;;;;;;5050539;28;20044;-64
2023/10/01 11:56:11;;;;;;;14.52;5.05;;;28.40;62.10;;;;;;5050377;28;20047;-64
2023/10/01 11:59:19;;;;;;;8.60;5.18;;;28.40;62.00;;;;;;5050324;28;20044;-65
2023/10/01 12:02:32;;;;;;;9.40;4.75;;;28.50;62.60;;;;;;5050219;28;20052;-64
2023/10/01 12:05:42;;;;;;;10.50;4.68;;;28.50;63.00;;;;;;5050342;28;20060;-65
2023/10/01 12:08:47;;;;;;;6.17;4.40;;;28.40;61.50;;;;;;5050278;28;20409;-64
2023/10/01 12:12:04;;;;;;;8.40;4.82;;;28.30;61.90;;;;;;5052773;28;20842;-65
2023/10/01 12:18:44;;;;;;;14.52;4.88;;;28.40;61.10;;;;;;5053268;28;20048;-66
2023/10/01 12:22:04;;;;;;;8.05;4.80;;;28.40;62.00;;;;;;5054051;28;20063;-65
2023/10/01 12:25:11;;;;;;;9.98;4.80;;;28.60;62.70;;;;;;5053573;28;20056;-65
2023/10/01 12:28:19;;;;;;;8.43;4.78;;;28.40;61.70;;;;;;5053413;28;20393;-65
2023/10/01 12:31:23;;;;;;;11.00;4.78;;;28.50;61.80;;;;;;5053805;28;20412;-64
2023/10/01 12:34:27;;;;;;;10.30;5.32;;;28.50;62.20;;;;;;5053284;28;20060;-64
2023/10/01 12:37:37;;;;;;;10.00;5.40;;;28.40;61.30;;;;;;5051701;28;20040;-64
2023/10/01 12:40:49;;;;;;;10.07;6.30;;;26.70;60.60;;;;;;5051705;28;20047;-64
2023/10/01 12:44:14;;;;;;;;;;;28.40;62.40;;;;;;5051715;28;20056;-65
2023/10/01 12:47:17;;;;;;;7.88;5.05;;;28.50;62.50;;;;;;5050768;28;19923;-65
2023/10/01 12:50:27;;;;;;;13.13;5.25;;;28.50;62.50;;;;;;5051143;28;20067;-65
2023/10/01 12:53:34;;;;;;;7.32;5.32;;;28.40;63.00;;;;;;5051703;28;20040;-65
2023/10/01 12:56:48;;;;;;;12.32;5.35;;;28.40;62.10;;;;;;5052345;28;20044;-64
2023/10/01 13:03:19;;;;;;;9.57;5.20;;;28.60;62.80;;;;;;5052829;28;20032;-65
2023/10/01 13:06:23;;;;;;;9.45;5.50;;;28.50;63.20;;;;;;5053258;28;20044;-65
2023/10/01 13:12:59;;;;;;;9.10;5.60;;;28.50;62.50;;;;;;5052134;28;20389;-66
2023/10/01 13:16:03;;;;;;;9.93;5.75;;;28.50;63.10;;;;;;5052787;28;20036;-65
2023/10/01 13:19:17;;;;;;;8.98;5.53;;;28.50;63.00;;;;;;5052920;28;20063;-64
2023/10/01 13:22:21;;;;;;;10.23;5.50;;;28.50;62.90;;;;;;5052064;28;20116;-65
2023/10/01 13:25:26;;;;;;;11.57;5.85;;;29.10;62.90;;;;;;5052539;28;20543;-65
2023/10/01 13:28:43;;;;;;;24.58;7.45;;;28.50;63.00;;;;;;5052821;28;20039;-65
2023/10/01 13:31:51;;;;;;;10.10;5.55;;;28.50;62.90;;;;;;5052762;28;20056;-65
2023/10/01 13:34:58;;;;;;;9.80;6.05;;;28.40;62.00;;;;;;5052322;28;20060;-66
2023/10/01 14:11:40;;;;;;;17.45;8.45;;;28.60;62.40;;;;;;5051810;28;20104;-66
2023/10/01 14:14:44;;;;;;;17.35;8.65;;;28.60;62.20;;;;;;5052127;28;20040;-66
2023/10/01 14:17:56;;;;;;;14.32;9.45;;;28.60;61.80;;;;;;5051660;28;20063;-69
2023/10/01 14:21:12;;;;;;;18.98;9.27;;;28.50;62.10;;;;;;5051684;28;20500;-66
2023/10/01 14:24:24;;;;;;;22.55;9.73;;;28.50;62.00;;;;;;5051725;28;20056;-66
2023/10/01 14:27:31;;;;;;;15.43;9.68;;;28.50;61.80;;;;;;5051607;28;20431;-65
2023/10/01 14:30:36;;;;;;;17.98;8.70;;;28.50;62.70;;;;;;5051985;28;20040;-66
2023/10/01 14:33:42;;;;;;;19.35;9.40;;;28.40;62.50;;;;;;5050532;28;20056;-67
2023/10/01 14:36:47;;;;;;;18.42;9.65;;;28.40;62.50;;;;;;5051514;28;20047;-66
2023/10/01 14:39:51;;;;;;;20.30;9.55;;;28.40;63.20;;;;;;5051339;28;20040;-66
2023/10/01 14:42:59;;;;;;;19.40;10.68;;;28.40;62.90;;;;;;5051359;28;20543;-66
2023/10/01 14:46:02;;;;;;;18.20;10.50;;;28.40;62.70;;;;;;5051397;28;20052;-67
2023/10/01 14:49:07;;;;;;;20.92;10.95;;;28.40;62.50;;;;;;5051302;28;20187;-66
2023/10/01 14:52:22;;;;;;;24.58;10.50;;;28.30;62.30;;;;;;5051376;28;20131;-67
2023/10/01 14:55:27;;;;;;;18.75;11.18;;;28.30;61.20;;;;;;5050835;28;20044;-66
2023/10/01 14:58:35;;;;;;;20.65;11.43;;;28.30;60.80;;;;;;5051487;28;20294;-65
2023/10/01 15:01:41;;;;;;;18.15;11.07;;;28.20;61.30;;;;;;5051040;28;20036;-65
2023/10/01 15:04:46;;;;;;;23.05;12.23;;;28.30;61.10;;;;;;5050967;28;20400;-64
2023/10/01 15:07:49;;;;;;;22.02;11.48;;;28.20;61.40;;;;;;5050859;28;20044;-65
2023/10/01 15:10:53;;;;;;;19.02;10.93;;;28.20;61.70;;;;;;5050844;28;20040;-67
2023/10/01 15:14:11;;;;;;;19.83;11.35;;;28.20;62.30;;;;;;5050871;28;20534;-67
2023/10/01 15:17:17;;;;;;;20.67;11.38;;;28.10;62.30;;;;;;5050746;28;20044;-65
2023/10/01 15:20:47;;;;;;;19.98;10.98;;;28.00;62.30;;;;;;5050990;28;20040;-65
2023/10/01 15:23:59;;;;;;;22.33;11.50;;;28.00;62.90;;;;;;5050904;28;20044;-66
2023/10/01 15:27:04;;;;;;;25.75;11.35;;;28.00;62.80;;;;;;5050713;28;20060;-66
2023/10/01 15:30:20;;;;;;;21.83;11.90;;;28.00;62.60;;;;;;5051066;28;20040;-65
2023/10/01 15:33:25;;;;;;;21.23;11.77;;;28.40;63.30;;;;;;5050382;28;20052;-66
2023/10/01 15:37:02;;;;;;;20.42;11.88;;;27.90;63.00;;;;;;5051112;28;20056;-66
2023/10/01 15:40:23;;;;;;;20.30;11.90;;;27.80;62.30;;;;;;5049581;28;20511;-65
2023/10/01 15:43:27;;;;;;;24.05;12.38;;;27.80;62.90;;;;;;5050194;28;20060;-67
2023/10/01 15:46:40;;;;;;;21.80;12.90;;;27.70;63.10;;;;;;5053316;28;20127;-64
2023/10/01 15:49:44;;;;;;;23.95;12.75;;;28.10;63.00;;;;;;5054231;28;20048;-64
2023/10/01 15:52:50;;;;;;;21.77;12.05;;;27.70;63.00;;;;;;5054009;28;20408;-65
2023/10/01 15:55:58;;;;;;;20.58;11.85;;;27.50;62.60;;;;;;5054660;28;20040;-64
2023/10/01 15:59:10;;;;;;;27.58;13.10;;;27.50;62.40;;;;;;5054046;28;20592;-65
2023/10/01 16:02:18;;;;;;;26.02;13.70;;;27.50;62.80;;;;;;5054705;28;20107;-67
2023/10/01 16:05:23;;;;;;;24.40;13.48;;;27.40;62.90;;;;;;5054422;28;20052;-66
2023/10/01 16:08:27;;;;;;;28.90;14.05;;;27.40;61.80;;;;;;5054462;28;20039;-68
2023/10/01 16:11:33;;;;;;;29.90;14.50;;;27.40;61.70;;;;;;5054259;28;20220;-67
2023/10/01 16:14:38;;;;;;;28.70;14.70;;;27.30;62.30;;;;;;5054066;28;20044;-65
2023/10/01 16:17:43;;;;;;;24.13;13.95;;;27.30;61.90;;;;;;5054039;28;20044;-66
2023/10/01 16:20:49;;;;;;;27.15;14.50;;;27.20;61.90;;;;;;5054300;28;20495;-65
2023/10/01 16:23:56;;;;;;;26.05;14.73;;;27.20;62.40;;;;;;5053912;28;20064;-67
2023/10/01 16:27:06;;;;;;;26.60;14.27;;;27.10;62.60;;;;;;5053920;28;20048;-66
2023/10/01 16:30:11;;;;;;;30.80;14.93;;;27.10;61.40;;;;;;5054658;28;20152;-65
2023/10/01 16:33:21;;;;;;;29.02;14.90;;;26.30;61.60;;;;;;5054699;28;20048;-67
2023/10/01 16:36:26;;;;;;;35.80;15.02;;;27.00;62.10;;;;;;5053704;28;20056;-65
2023/10/01 16:39:35;;;;;;;34.10;16.15;;;26.90;61.80;;;;;;5053788;28;20052;-67
2023/10/01 16:42:45;;;;;;;28.83;15.15;;;26.80;62.00;;;;;;5055256;28;20388;-66
2023/10/01 16:45:50;;;;;;;30.08;15.60;;;26.80;62.50;;;;;;5055406;28;20056;-66
2023/10/01 16:48:58;;;;;;;29.17;15.35;;;26.80;62.70;;;;;;5052845;28;20048;-65
2023/10/01 16:52:04;;;;;;;29.40;15.73;;;26.60;62.00;;;;;;5053209;28;20067;-65
2023/10/01 16:55:08;;;;;;;32.08;15.98;;;26.90;62.60;;;;;;5053059;28;20052;-65
2023/10/01 16:58:12;;;;;;;28.98;15.63;;;26.60;62.20;;;;;;5052369;28;20409;-64
2023/10/01 17:01:21;;;;;;;30.00;14.82;;;26.80;62.10;;;;;;5051362;28;20107;-65
2023/10/01 17:04:26;;;;;;;34.60;15.93;;;26.50;62.60;;;;;;5051500;28;20112;-64
2023/10/01 17:07:38;;;;;;;34.78;16.98;;;26.50;61.60;;;;;;5052725;28;20052;-64
2023/10/01 17:10:42;;;;;;;31.42;15.32;;;26.50;62.20;;;;;;5052895;28;20060;-64
2023/10/01 17:13:47;;;;;;;36.25;16.45;;;26.40;62.40;;;;;;5052379;28;20063;-64
2023/10/01 17:16:51;;;;;;;34.42;16.75;;;26.30;62.10;;;;;;5052581;28;20111;-64